Time;durP1;ratioP1;P1;durP2;ratioP2;P2;SDS_P1;SDS_P2;PMS_P1;PMS_P2;Temp;Humidity;BMP_temperature;BMP_pressure;BME280_temperature;BME280_humidity;BME280_pressure;Samples;Min_cycle;Max_cycle;Signal;HPM_P1;HPM_P2
2023/07/28 00:02:20;;;;;;;6.97;6.27;;;;;;;-141.97;45.82;47578.66;5053377;28;20616;-80
2023/07/28 00:04:45;;;;;;;8.27;6.00;;;;;;;-141.97;45.97;47299.97;5052121;28;20208;-80
2023/07/28 00:07:11;;;;;;;8.90;6.80;;;;;;;-141.97;46.16;47461.41;5053735;28;20618;-81
2023/07/28 00:09:36;;;;;;;9.27;7.47;;;;;;;-141.97;46.24;47422.97;5051960;28;20184;-80
2023/07/28 00:12:02;;;;;;;8.00;6.90;;;;;;;-141.97;46.47;47557.53;5053758;28;20236;-80
2023/07/28 00:14:28;;;;;;;7.37;6.67;;;;;;;-141.97;46.57;47305.75;5041787;28;20243;-81
2023/07/28 00:16:54;;;;;;;7.70;6.90;;;;;;;-141.97;46.50;47242.31;5051752;28;20170;-81
2023/07/28 00:19:23;;;;;;;7.90;7.10;;;;;;;-141.97;46.71;47447.97;5052504;28;20235;-80
2023/07/28 00:21:49;;;;;;;7.20;6.50;;;;;;;-141.97;46.82;47471.03;5052924;28;20212;-81
2023/07/28 00:24:15;;;;;;;6.73;6.10;;;;;;;-141.97;46.78;47434.50;5052805;28;20247;-80
2023/07/28 00:26:41;;;;;;;7.10;6.40;;;;;;;-141.97;46.79;47447.97;5053183;28;20161;-81
2023/07/28 00:29:07;;;;;;;9.63;6.53;;;;;;;-141.97;46.93;47588.28;5050598;28;20615;-81
2023/07/28 00:31:33;;;;;;;8.37;6.70;;;;;;;-141.97;47.15;47434.50;5052688;28;20189;-81
2023/07/28 00:33:58;;;;;;;7.90;6.23;;;;;;;-141.97;47.17;47361.47;5052321;28;20247;-81
2023/07/28 00:36:24;;;;;;;7.00;6.30;;;;;;;-141.97;47.13;47317.28;5052137;28;20306;-81
2023/07/28 00:38:49;;;;;;;7.70;6.83;;;;;;;-141.97;47.31;47622.88;5050384;28;20242;-81
2023/07/28 00:41:14;;;;;;;7.70;6.77;;;;;;;-141.97;47.65;47405.69;5054019;28;20166;-80
2023/07/28 00:43:40;;;;;;;8.37;6.70;;;;;;;-141.97;47.57;47480.63;5051040;28;20173;-79
2023/07/28 00:46:06;;;;;;;7.73;6.93;;;;;;;-141.97;47.80;47238.47;5052389;28;20200;-80
2023/07/28 00:48:32;;;;;;;9.10;6.97;;;;;;;-141.97;47.89;47269.22;5049873;28;20625;-81
2023/07/28 00:50:58;;;;;;;7.70;6.90;;;;;;;-141.97;48.13;47373.00;5052799;28;20211;-79
2023/07/28 00:53:24;;;;;;;9.77;6.87;;;;;;;-141.97;47.92;47469.09;5053115;28;20176;-81
2023/07/28 00:55:49;;;;;;;7.20;6.43;;;;;;;-141.97;47.97;47469.09;5053057;28;20187;-80
2023/07/28 00:58:15;;;;;;;8.80;6.53;;;;;;;-141.97;47.81;47434.50;5054727;28;20227;-81
2023/07/28 01:00:40;;;;;;;7.10;6.40;;;;;;;-141.97;48.06;47301.91;5054337;28;20556;-80
2023/07/28 01:03:06;;;;;;;8.07;6.50;;;;;;;-141.97;47.88;47446.03;5052210;28;20172;-80
2023/07/28 01:05:39;;;;;;;7.17;6.47;;;;;;;-141.97;47.85;47426.81;5051876;28;20279;-81
2023/07/28 01:08:27;;;;;;;8.10;6.70;;;;;;;-141.97;47.72;47396.06;5049932;28;20202;-81
2023/07/28 01:10:52;;;;;;;6.90;6.20;;;;;;;-141.97;47.40;47428.75;5051734;28;20197;-82
2023/07/28 01:13:18;;;;;;;7.40;6.60;;;;;;;-141.97;47.17;47223.09;5052561;28;20174;-85
2023/07/28 01:15:43;;;;;;;7.57;6.67;;;;;;;-141.97;47.51;47203.88;5041676;28;20268;-80
2023/07/28 01:18:09;;;;;;;7.23;6.40;;;;;;;-141.97;47.53;47392.22;5053131;28;20209;-80
2023/07/28 01:20:38;;;;;;;7.70;6.90;;;;;;;-141.97;47.65;47446.03;5054079;28;20169;-80
2023/07/28 01:23:20;;;;;;;8.47;7.17;;;;;;;-141.97;47.86;47461.41;5052151;28;20169;-79
2023/07/28 01:26:11;;;;;;;11.20;7.77;;;;;;;-141.97;48.07;47430.66;5084401;28;20189;-80
2023/07/28 01:28:39;;;;;;;12.00;7.77;;;;;;;-141.97;47.96;47449.88;5050758;28;20188;-80
2023/07/28 01:31:06;;;;;;;11.03;7.73;;;;;;;-141.97;48.09;47442.19;5052018;28;20609;-80
2023/07/28 01:33:32;;;;;;;8.63;7.63;;;;;;;-141.97;48.38;47326.88;5082968;28;20204;-80
2023/07/28 01:36:00;;;;;;;8.60;7.20;;;;;;;-141.97;47.92;47580.59;5051120;28;20590;-81
2023/07/28 01:38:29;;;;;;;9.43;7.77;;;;;;;-141.97;48.14;47457.56;5050026;28;20263;-80
2023/07/28 01:40:54;;;;;;;8.23;7.40;;;;;;;-141.97;47.96;47484.47;5049456;28;20648;-81
2023/07/28 01:43:20;;;;;;;10.13;7.43;;;;;;;-141.97;48.04;47453.72;5060756;28;20165;-79
2023/07/28 01:45:45;;;;;;;7.20;6.37;;;;;;;-141.97;47.96;47455.66;5070154;28;20231;-80
2023/07/28 01:48:11;;;;;;;9.33;7.30;;;;;;;-141.97;47.75;47422.97;5050563;28;20625;-81
2023/07/28 01:50:37;;;;;;;7.90;7.10;;;;;;;-141.97;47.76;47265.38;5050673;28;20197;-81
2023/07/28 01:53:04;;;;;;;7.80;7.00;;;;;;;-141.97;47.78;47499.84;5050061;28;20623;-80
2023/07/28 01:55:29;;;;;;;8.90;7.00;;;;;;;-141.97;47.85;47619.03;5050495;28;20189;-81
2023/07/28 01:58:00;;;;;;;9.60;7.53;;;;;;;-141.97;48.12;47251.94;5082274;28;20309;-80
2023/07/28 02:00:26;;;;;;;8.77;7.67;;;;;;;-141.97;48.36;47438.34;5050395;28;20312;-81
2023/07/28 02:02:52;;;;;;;9.00;7.50;;;;;;;-141.97;48.55;47463.34;5050346;28;20157;-81
2023/07/28 02:05:18;;;;;;;13.97;8.07;;;;;;;-141.97;48.68;47315.34;5050569;28;20319;-81
2023/07/28 02:07:43;;;;;;;12.23;8.50;;;;;;;-141.97;49.08;47419.13;5047960;28;20170;-81
2023/07/28 02:10:10;;;;;;;12.13;8.53;;;;;;;-141.97;49.46;47376.84;5048993;28;20261;-79
2023/07/28 02:12:39;;;;;;;8.67;7.77;;;;;;;-141.97;49.64;47472.94;5049221;28;20169;-81
2023/07/28 02:15:08;;;;;;;9.13;7.60;;;;;;;-141.97;50.15;47434.50;5040773;28;20162;-81
2023/07/28 02:17:33;;;;;;;9.20;7.70;;;;;;;-141.97;50.57;47442.19;5050621;28;20578;-80
2023/07/28 02:19:59;;;;;;;11.23;8.10;;;;;;;-141.97;50.90;47407.59;5049542;28;20195;-80
2023/07/28 02:22:24;;;;;;;11.07;8.40;;;;;;;-141.97;51.07;47592.13;5048495;28;20226;-81
2023/07/28 02:24:49;;;;;;;9.10;7.93;;;;;;;-141.97;51.35;47357.63;5050290;28;20189;-81
2023/07/28 02:27:15;;;;;;;9.37;8.13;;;;;;;-141.97;51.85;47572.91;5050053;28;20248;-81
2023/07/28 02:29:41;;;;;;;10.00;7.67;;;;;;;-141.97;51.60;47461.41;5048503;28;20553;-81
2023/07/28 02:32:07;;;;;;;9.27;7.80;;;;;;;-141.97;51.50;47471.03;5050305;28;20160;-80
2023/07/28 02:34:32;;;;;;;10.13;7.80;;;;;;;-141.97;51.72;47486.41;5050158;28;20680;-81
2023/07/28 02:36:58;;;;;;;11.17;8.10;;;;;;;-141.97;51.69;47476.78;5049342;28;20233;-81
2023/07/28 02:39:24;;;;;;;9.03;8.10;;;;;;;-141.97;51.81;47446.03;5050119;28;20598;-81
2023/07/28 02:41:50;;;;;;;11.27;7.73;;;;;;;-141.97;52.32;47392.22;5050344;28;20169;-81
2023/07/28 02:44:15;;;;;;;9.97;8.10;;;;;;;-141.97;52.78;47396.06;5048403;28;20205;-81
2023/07/28 02:46:41;;;;;;;11.93;7.90;;;;;;;-141.97;52.51;47434.50;5050056;28;20526;-81
2023/07/28 02:49:06;;;;;;;9.90;7.43;;;;;;;-141.97;53.13;47394.16;5049423;28;20211;-81
2023/07/28 02:51:33;;;;;;;9.63;7.37;;;;;;;-141.97;53.24;47334.56;5048245;28;20625;-81
2023/07/28 02:53:58;;;;;;;8.70;7.77;;;;;;;-141.97;53.20;47434.50;5050119;28;20650;-81
2023/07/28 02:56:24;;;;;;;8.57;7.40;;;;;;;-141.97;53.13;47570.97;5050011;28;20176;-81
2023/07/28 02:58:49;;;;;;;9.37;7.70;;;;;;;-141.97;53.01;47503.69;5048325;28;20223;-80
2023/07/28 03:01:15;;;;;;;9.27;7.60;;;;;;;-141.97;53.27;47328.81;5049927;28;20637;-81
2023/07/28 03:03:40;;;;;;;9.13;7.57;;;;;;;-141.97;53.22;47374.94;5049677;28;20162;-80
2023/07/28 03:06:06;;;;;;;8.97;7.87;;;;;;;-141.97;53.29;47538.28;5049949;28;20169;-81
2023/07/28 03:08:31;;;;;;;8.50;7.27;;;;;;;-141.97;53.25;47311.50;5048272;28;20270;-79
2023/07/28 03:11:02;;;;;;;8.43;7.50;;;;;;;-141.97;53.33;47438.34;5049547;28;20185;-81
2023/07/28 03:13:28;;;;;;;8.77;7.33;;;;;;;-141.97;53.21;47613.25;5048080;28;20358;-81
2023/07/28 03:15:53;;;;;;;10.30;7.30;;;;;;;-141.97;53.21;47319.19;5039543;28;20235;-80
2023/07/28 03:18:19;;;;;;;7.87;7.07;;;;;;;-141.97;53.06;47469.09;5049803;28;20188;-80
2023/07/28 03:20:45;;;;;;;8.63;7.03;;;;;;;-141.97;53.09;47419.13;5052063;28;20181;-81
2023/07/28 03:23:11;;;;;;;8.27;7.47;;;;;;;-141.97;53.11;47388.38;5052096;28;20191;-81
2023/07/28 03:25:36;;;;;;;9.47;6.73;;;;;;;-141.97;53.00;47636.31;5052625;28;20645;-81
2023/07/28 03:28:01;;;;;;;8.70;7.57;;;;;;;-141.97;52.95;47361.47;5053470;28;20212;-81
2023/07/28 03:30:27;;;;;;;10.80;8.30;;;;;;;-141.97;52.61;47590.19;5054132;28;20153;-81
2023/07/28 03:32:52;;;;;;;15.13;10.27;;;;;;;-141.97;52.18;47524.84;5053639;28;20189;-81
2023/07/28 03:35:17;;;;;;;25.50;15.07;;;;;;;-141.97;51.94;47309.59;5053545;28;20158;-81
2023/07/28 03:37:43;;;;;;;16.27;9.67;;;;;;;-141.97;51.70;47409.53;5052778;28;20213;-81
2023/07/28 03:40:08;;;;;;;14.73;10.20;;;;;;;-141.97;51.77;47432.59;5053321;28;20621;-81
2023/07/28 03:42:34;;;;;;;15.83;10.90;;;;;;;-141.97;51.91;47594.03;5051688;28;20192;-81
2023/07/28 03:44:59;;;;;;;13.93;10.10;;;;;;;-141.97;51.48;47594.03;5053097;28;20201;-80
2023/07/28 03:47:25;;;;;;;14.07;8.80;;;;;;;-141.97;50.84;47549.84;5053130;28;20173;-81
2023/07/28 03:49:50;;;;;;;23.53;10.83;;;;;;;-141.97;51.44;47361.47;5052977;28;20227;-81
2023/07/28 03:52:15;;;;;;;15.63;12.33;;;;;;;-141.97;53.10;47530.59;5053056;28;20173;-81
2023/07/28 03:54:41;;;;;;;20.77;14.10;;;;;;;-141.97;53.97;47271.16;5053007;28;20531;-81
2023/07/28 03:57:08;;;;;;;20.60;13.90;;;;;;;-141.97;54.34;47490.25;5050859;28;20191;-82
2023/07/28 03:59:34;;;;;;;24.77;15.10;;;;;;;-141.97;55.23;47482.56;5052930;28;20659;-81
2023/07/28 04:01:59;;;;;;;23.00;15.07;;;;;;;-141.97;55.72;47449.88;5051763;28;20302;-81
2023/07/28 04:04:24;;;;;;;24.97;15.00;;;;;;;-141.97;55.75;47380.69;5084862;28;20197;-81
2023/07/28 04:06:50;;;;;;;20.97;14.17;;;;;;;-141.97;55.18;47465.25;5066405;28;20150;-80
2023/07/28 04:09:16;;;;;;;20.73;14.10;;;;;;;-141.97;55.49;47467.19;5065818;28;20216;-81
2023/07/28 04:11:43;;;;;;;25.40;14.67;;;;;;;-141.97;56.07;47469.09;5036407;28;20192;-81
2023/07/28 04:14:08;;;;;;;20.00;14.50;;;;;;;-141.97;55.83;47380.69;5064383;28;20177;-82
2023/07/28 04:16:34;;;;;;;20.80;14.50;;;;;;;-141.97;55.87;47438.34;5022993;28;20238;-81
2023/07/28 04:18:59;;;;;;;19.47;13.73;;;;;;;-141.97;55.84;47386.47;5079704;28;20189;-82
2023/07/28 04:21:25;;;;;;;19.63;13.37;;;;;;;-141.97;55.61;47321.13;5053053;28;20157;-81
2023/07/28 04:23:50;;;;;;;17.83;13.23;;;;;;;-141.97;55.58;47384.53;5052324;28;20185;-81
2023/07/28 04:26:17;;;;;;;19.10;13.70;;;;;;;-141.97;54.91;47459.50;5052605;28;20162;-81
2023/07/28 04:28:43;;;;;;;21.43;13.23;;;;;;;-141.97;54.29;47376.84;5050443;28;20201;-81
2023/07/28 04:31:08;;;;;;;20.50;14.20;;;;;;;-141.97;53.32;47476.78;5051163;28;20367;-81
2023/07/28 04:33:34;;;;;;;27.70;13.73;;;;;;;-141.97;52.67;47374.94;5052102;28;20176;-81
2023/07/28 04:36:02;;;;;;;22.57;13.50;;;;;;;-141.97;52.18;47472.94;5051846;28;20181;-82
2023/07/28 04:38:27;;;;;;;23.77;12.67;;;;;;;-141.97;51.36;47647.84;5050463;28;20260;-81
2023/07/28 04:40:53;;;;;;;21.63;13.03;;;;;;;-141.97;50.96;47353.78;5052153;28;20204;-81
2023/07/28 04:43:18;;;;;;;17.70;12.50;;;;;;;-141.97;50.89;47599.81;5051700;28;20755;-82
2023/07/28 04:45:44;;;;;;;22.13;11.87;;;;;;;-141.97;50.67;47434.50;5051948;28;20193;-82
2023/07/28 04:48:10;;;;;;;16.40;11.00;;;;;;;-141.97;50.46;47515.22;5050269;28;20555;-82
2023/07/28 04:50:36;;;;;;;16.90;11.33;;;;;;;-141.97;50.28;47607.50;5050501;28;20248;-82
2023/07/28 04:53:02;;;;;;;15.90;11.07;;;;;;;-141.97;50.75;47307.66;5052142;28;20158;-80
2023/07/28 04:55:27;;;;;;;16.17;10.20;;;;;;;-141.97;50.14;47326.88;5052155;28;20182;-80
2023/07/28 04:57:53;;;;;;;14.50;9.67;;;;;;;-141.97;49.43;47426.81;5051964;28;20684;-80
2023/07/28 05:00:19;;;;;;;15.77;9.63;;;;;;;-141.97;48.70;47471.03;5060134;28;20216;-83
2023/07/28 05:02:44;;;;;;;15.43;10.10;;;;;;;-141.97;48.70;47496.00;5056644;28;20578;-81
2023/07/28 05:05:10;;;;;;;15.30;10.57;;;;;;;-141.97;48.08;47572.91;5050365;28;20193;-81
2023/07/28 05:07:35;;;;;;;20.07;10.70;;;;;;;-141.97;47.36;47570.97;5051806;28;20169;-81
2023/07/28 05:10:01;;;;;;;17.10;10.37;;;;;;;-141.97;46.76;47595.97;5050320;28;20189;-81
2023/07/28 05:12:26;;;;;;;12.03;8.77;;;;;;;-141.97;45.86;47603.66;5050371;28;20169;-80
2023/07/28 05:14:52;;;;;;;13.63;9.07;;;;;;;-141.97;46.25;47549.84;5050652;28;20609;-80
2023/07/28 05:17:17;;;;;;;15.00;9.70;;;;;;;-141.97;46.45;47488.31;5040838;28;20221;-80
2023/07/28 05:19:43;;;;;;;10.77;7.83;;;;;;;-141.97;46.01;47561.38;5049564;28;20169;-80
2023/07/28 05:22:08;;;;;;;8.87;6.63;;;;;;;-141.97;44.40;47342.25;5051335;28;20751;-80
2023/07/28 05:24:34;;;;;;;8.40;6.40;;;;;;;-141.97;44.12;47421.06;5051204;28;20182;-81
2023/07/28 05:26:59;;;;;;;6.97;6.27;;;;;;;-141.97;43.34;47519.06;5083370;28;20641;-80
2023/07/28 05:29:24;;;;;;;8.97;6.60;;;;;;;-141.97;43.03;47369.16;5082980;28;20205;-81
2023/07/28 05:31:50;;;;;;;8.17;6.63;;;;;;;-141.97;42.91;47519.06;5051244;28;20239;-81
2023/07/28 05:34:16;;;;;;;9.07;6.70;;;;;;;-141.97;42.30;47469.09;5050654;28;20180;-81
2023/07/28 05:36:41;;;;;;;14.63;6.93;;;;;;;-141.97;41.78;47353.78;5050681;28;20548;-81
2023/07/28 05:39:06;;;;;;;8.27;6.67;;;;;;;-141.97;41.59;47444.13;5050784;28;20181;-81
2023/07/28 05:41:32;;;;;;;10.73;6.40;;;;;;;-141.97;41.40;47401.84;5050659;28;20177;-81
2023/07/28 05:43:57;;;;;;;9.47;7.07;;;;;;;-141.97;41.23;47342.25;5051125;28;20263;-81
2023/07/28 05:46:24;;;;;;;10.50;6.77;;;;;;;-141.97;41.60;47369.16;5049869;28;20208;-81
2023/07/28 05:48:49;;;;;;;9.10;6.10;;;;;;;-141.97;41.44;47363.41;5050460;28;20169;-81
2023/07/28 05:51:15;;;;;;;12.47;6.57;;;;;;;-141.97;41.43;47599.81;5050650;28;20243;-81
2023/07/28 05:53:41;;;;;;;9.87;6.20;;;;;;;-141.97;41.38;47273.06;5050672;28;20240;-81
2023/07/28 05:56:06;;;;;;;7.47;6.07;;;;;;;-141.97;41.18;47542.16;5050677;28;20162;-81
2023/07/28 05:58:32;;;;;;;10.90;6.23;;;;;;;-141.97;40.66;47419.13;5050589;28;20248;-80
2023/07/28 06:00:57;;;;;;;9.33;6.00;;;;;;;-141.97;40.48;47434.50;5050497;28;20590;-81
2023/07/28 06:03:23;;;;;;;10.60;6.63;;;;;;;-141.97;40.85;47434.50;5049828;28;20512;-80
2023/07/28 06:05:48;;;;;;;10.10;6.00;;;;;;;-141.97;40.24;47432.59;5050177;28;20193;-80
2023/07/28 06:08:14;;;;;;;8.37;6.00;;;;;;;-141.97;39.65;47217.34;5048493;28;20183;-81
2023/07/28 06:10:39;;;;;;;6.57;5.87;;;;;;;-141.97;40.32;47430.66;5050029;28;21070;-80
2023/07/28 06:13:04;;;;;;;8.17;6.00;;;;;;;-141.97;40.32;47307.66;5049991;28;20165;-83
2023/07/28 06:15:30;;;;;;;12.07;6.50;;;;;;;-141.97;40.14;47359.56;5050182;28;20185;-80
2023/07/28 06:17:55;;;;;;;9.97;6.63;;;;;;;-141.97;39.55;47299.97;5038547;28;20233;-80
2023/07/28 06:20:21;;;;;;;9.47;6.20;;;;;;;-141.97;38.90;47315.34;5050115;28;20562;-80
2023/07/28 06:22:46;;;;;;;9.30;6.13;;;;;;;-141.97;39.59;47472.94;5049901;28;20667;-81
2023/07/28 06:25:11;;;;;;;9.20;6.13;;;;;;;-141.97;39.58;47549.84;5049667;28;20189;-81
2023/07/28 06:27:38;;;;;;;7.77;5.63;;;;;;;-141.97;38.97;47432.59;5048630;28;20176;-81
2023/07/28 06:30:05;;;;;;;7.80;5.97;;;;;;;-141.97;38.06;47403.75;5054806;28;20196;-81
2023/07/28 06:32:30;;;;;;;11.77;6.43;;;;;;;-141.97;38.03;47384.53;5071477;28;20255;-82
2023/07/28 06:34:57;;;;;;;9.00;6.33;;;;;;;-141.97;38.13;47346.09;5052871;28;20217;-81
2023/07/28 06:37:23;;;;;;;12.57;6.50;;;;;;;-141.97;37.73;47363.41;5049628;28;20233;-80
2023/07/28 06:39:49;;;;;;;9.47;6.37;;;;;;;-141.97;37.25;47398.00;5049274;28;20191;-80
2023/07/28 06:42:16;;;;;;;11.63;5.77;;;;;;;-141.97;36.81;47398.00;5049558;28;20271;-81
2023/07/28 06:44:41;;;;;;;8.40;5.60;;;;;;;-141.97;36.33;47338.41;5049768;28;20207;-80
2023/07/28 06:47:07;;;;;;;11.73;5.70;;;;;;;-141.97;36.24;47390.31;5049403;28;20153;-81
2023/07/28 06:49:32;;;;;;;6.97;5.00;;;;;;;-141.97;35.89;47390.31;5049454;28;20169;-80
2023/07/28 06:51:58;;;;;;;5.13;4.50;;;;;;;-141.97;36.21;47382.63;5049555;28;20157;-80
2023/07/28 06:54:24;;;;;;;4.93;4.43;;;;;;;-141.97;35.81;47415.28;5049027;28;20153;-80
2023/07/28 06:56:50;;;;;;;5.60;4.13;;;;;;;-141.97;35.62;47367.25;5049294;28;20181;-80
2023/07/28 06:59:15;;;;;;;4.77;3.90;;;;;;;-141.97;35.62;47373.00;5049514;28;20474;-81
2023/07/28 07:01:40;;;;;;;5.33;3.33;;;;;;;-141.97;34.89;47374.94;5050378;28;20189;-79
2023/07/28 07:04:06;;;;;;;4.00;3.70;;;;;;;-141.97;34.92;47419.13;5048339;28;20219;-81
2023/07/28 07:06:32;;;;;;;5.27;4.03;;;;;;;-141.97;34.76;47369.16;5049749;28;20188;-80
2023/07/28 07:08:57;;;;;;;6.33;4.00;;;;;;;-141.97;34.62;47415.28;5049337;28;20181;-81
2023/07/28 07:11:23;;;;;;;4.40;3.63;;;;;;;-141.97;34.19;47407.59;5048087;28;20165;-80
2023/07/28 07:13:48;;;;;;;3.90;3.60;;;;;;;-141.97;34.56;47411.44;5049517;28;20237;-80
2023/07/28 07:16:16;;;;;;;5.33;3.80;;;;;;;-141.97;35.19;47353.78;5040711;28;20162;-80
2023/07/28 07:18:43;;;;;;;12.80;4.07;;;;;;;-141.97;34.47;47299.97;5048978;28;20168;-81
2023/07/28 07:21:09;;;;;;;6.13;4.10;;;;;;;-141.97;34.16;47384.53;5048070;28;20203;-81
2023/07/28 07:23:35;;;;;;;4.17;3.67;;;;;;;-141.97;33.64;47417.22;5049758;28;20158;-81
2023/07/28 07:26:01;;;;;;;5.80;3.23;;;;;;;-141.97;33.26;47332.66;5047550;28;20193;-80
2023/07/28 07:28:28;;;;;;;4.50;3.40;;;;;;;-141.97;33.22;47392.22;5048659;28;20173;-81
2023/07/28 07:30:56;;;;;;;4.77;3.70;;;;;;;-141.97;33.11;47371.09;5048959;28;20541;-80
2023/07/28 07:33:21;;;;;;;5.03;3.50;;;;;;;-141.97;32.88;47284.59;5048865;28;20202;-81
2023/07/28 07:35:47;;;;;;;3.70;3.20;;;;;;;-141.97;32.66;47361.47;5048725;28;20649;-81
2023/07/28 07:38:13;;;;;;;3.73;3.40;;;;;;;-141.97;32.55;47424.91;5045790;28;21341;-81
2023/07/28 07:40:38;;;;;;;3.63;3.20;;;;;;;-141.97;33.30;47392.22;5050018;28;20165;-81
2023/07/28 07:43:04;;;;;;;4.67;3.37;;;;;;;-141.97;33.29;47603.66;5049654;28;20644;-81
2023/07/28 07:45:32;;;;;;;4.57;3.73;;;;;;;-141.97;33.41;47388.38;5049902;28;20602;-80
2023/07/28 07:47:59;;;;;;;4.73;3.80;;;;;;;-141.97;33.37;47647.84;5051183;28;20665;-81
2023/07/28 07:50:25;;;;;;;6.57;3.70;;;;;;;-141.97;33.13;47344.19;5049319;28;20166;-81
2023/07/28 07:52:50;;;;;;;4.03;3.63;;;;;;;-141.97;32.17;47326.88;5049039;28;20162;-81
2023/07/28 07:55:16;;;;;;;3.70;3.40;;;;;;;-141.97;31.65;47380.69;5048477;28;20161;-81
2023/07/28 07:57:42;;;;;;;5.13;3.30;;;;;;;-141.97;31.69;47374.94;5050320;28;20204;-81
2023/07/28 08:00:08;;;;;;;5.10;3.50;;;;;;;-141.97;31.36;47380.69;5052071;28;20174;-81
2023/07/28 08:02:34;;;;;;;3.67;3.20;;;;;;;-141.97;30.69;47342.25;5049680;28;20587;-81
2023/07/28 08:05:00;;;;;;;5.03;3.43;;;;;;;-141.97;31.16;47346.09;5050570;28;20215;-81
2023/07/28 08:07:25;;;;;;;4.67;3.80;;;;;;;-141.97;30.86;47557.53;5052915;28;20614;-81
2023/07/28 08:09:51;;;;;;;3.70;3.40;;;;;;;-141.97;30.72;47365.31;5052452;28;20547;-80
2023/07/28 08:12:16;;;;;;;5.90;3.80;;;;;;;-141.97;30.95;47355.72;5052996;28;20632;-82
2023/07/28 08:14:42;;;;;;;4.50;3.30;;;;;;;-141.97;30.57;47376.84;5053247;28;20208;-81
2023/07/28 08:17:09;;;;;;;4.53;3.30;;;;;;;-141.97;30.98;47403.75;5042440;28;20247;-81
2023/07/28 08:19:34;;;;;;;3.50;3.20;;;;;;;-141.97;29.99;47361.47;5051876;28;20177;-82
2023/07/28 08:22:03;;;;;;;4.80;3.22;;;;;;;-141.97;30.11;47373.00;5052317;28;20230;-80
2023/07/28 08:24:28;;;;;;;4.15;3.33;;;;;;;-141.97;30.47;47359.56;5052070;28;20654;-81
2023/07/28 08:26:54;;;;;;;3.33;3.03;;;;;;;-141.97;29.96;47336.50;5052339;28;20175;-80
2023/07/28 08:29:19;;;;;;;3.87;3.30;;;;;;;-141.97;29.76;47361.47;5052548;28;20307;-81
2023/07/28 08:31:44;;;;;;;5.43;3.23;;;;;;;-141.97;29.56;47348.03;5051359;28;20181;-82
2023/07/28 08:34:10;;;;;;;7.15;3.63;;;;;;;-141.97;30.00;47380.69;5052637;28;20217;-81
2023/07/28 08:36:35;;;;;;;3.70;3.40;;;;;;;-141.97;29.89;47330.72;5052193;28;20154;-81
2023/07/28 08:39:01;;;;;;;4.35;3.03;;;;;;;-141.97;29.33;47344.19;5053418;28;20170;-81
2023/07/28 08:41:27;;;;;;;5.13;3.78;;;;;;;-141.97;29.13;47311.50;5054645;28;20194;-81
2023/07/28 08:43:53;;;;;;;3.75;3.08;;;;;;;-141.97;28.62;47273.06;5044500;28;20213;-81
2023/07/28 08:46:19;;;;;;;5.10;2.92;;;;;;;-141.97;28.75;47298.06;5032435;28;20187;-80
2023/07/28 08:48:45;;;;;;;3.30;3.00;;;;;;;-141.97;28.31;47361.47;5037238;28;20181;-83
2023/07/28 08:51:13;;;;;;;3.50;2.92;;;;;;;-141.97;28.47;47357.63;5052149;28;20669;-80
2023/07/28 08:53:39;;;;;;;3.10;2.70;;;;;;;-141.97;29.03;47309.59;5052094;28;20292;-79
2023/07/28 08:56:05;;;;;;;3.90;2.90;;;;;;;-141.97;28.88;47284.59;5063752;28;20175;-79
2023/07/28 08:58:30;;;;;;;3.83;2.90;;;;;;;-141.97;28.64;47338.41;5062553;28;20245;-82
2023/07/28 09:01:00;;;;;;;3.97;2.80;;;;;;;-141.97;28.09;47307.66;5052068;28;20255;-81
2023/07/28 09:03:27;;;;;;;4.85;2.70;;;;;;;-141.97;28.13;47353.78;5051970;28;20165;-82
2023/07/28 09:05:59;;;;;;;4.07;2.83;;;;;;;-141.97;27.77;47298.06;5052489;28;20351;-81
2023/07/28 09:08:25;;;;;;;3.00;2.67;;;;;;;-141.97;27.74;47536.38;5051244;28;20237;-80
2023/07/28 09:10:51;;;;;;;3.55;2.92;;;;;;;-141.97;27.75;47332.66;5051451;28;20220;-81
2023/07/28 09:13:18;;;;;;;3.72;2.70;;;;;;;-141.97;28.12;47299.97;5050241;28;20189;-80
2023/07/28 09:15:44;;;;;;;3.30;3.00;;;;;;;-141.97;28.13;47301.91;5051016;28;20175;-80
2023/07/28 09:18:15;;;;;;;3.60;2.90;;;;;;;-141.97;27.70;47315.34;5044027;28;20693;-80
2023/07/28 09:20:41;;;;;;;3.50;2.90;;;;;;;-141.97;27.60;47278.84;5052277;28;20177;-81
2023/07/28 09:23:08;;;;;;;4.20;3.20;;;;;;;-141.97;26.97;47257.69;5050999;28;20175;-81
2023/07/28 09:25:35;;;;;;;3.17;2.88;;;;;;;-141.97;26.79;47309.59;5051091;28;20231;-80
2023/07/28 09:28:01;;;;;;;4.90;3.08;;;;;;;-141.97;26.96;47311.50;5051099;28;20206;-81
2023/07/28 09:30:27;;;;;;;3.67;2.97;;;;;;;-141.97;27.51;47342.25;5050674;28;20175;-81
2023/07/28 09:32:54;;;;;;;3.83;3.03;;;;;;;-141.97;27.22;47419.13;5051182;28;20545;-81
2023/07/28 09:35:21;;;;;;;3.30;2.60;;;;;;;-141.97;26.26;47326.88;5050298;28;20176;-81
2023/07/28 09:37:50;;;;;;;5.10;3.72;;;;;;;-141.97;26.84;47303.81;5051061;28;20220;-81
2023/07/28 09:40:21;;;;;;;3.42;2.90;;;;;;;-141.97;26.95;47294.22;5051777;28;20166;-80
2023/07/28 09:42:54;;;;;;;3.80;3.00;;;;;;;-141.97;27.08;47278.84;5054958;28;20648;-82
2023/07/28 09:45:21;;;;;;;6.20;3.30;;;;;;;-141.97;27.04;47321.13;5051640;28;20338;-81
2023/07/28 09:47:47;;;;;;;3.22;2.92;;;;;;;-141.97;26.44;47299.97;5051735;28;20644;-81
2023/07/28 09:50:18;;;;;;;3.53;3.05;;;;;;;-141.97;26.73;47303.81;5051256;28;20226;-81
2023/07/28 09:52:46;;;;;;;4.10;3.30;;;;;;;-141.97;26.24;47100.09;5049061;28;20509;-79
2023/07/28 09:55:13;;;;;;;3.55;2.70;;;;;;;-141.97;26.24;47284.59;5050333;28;20222;-81
2023/07/28 09:57:51;;;;;;;4.93;2.92;;;;;;;-141.97;26.44;47296.13;5050695;28;20173;-79
2023/07/28 10:00:18;;;;;;;3.20;2.90;;;;;;;-141.97;26.71;47326.88;5049761;28;20234;-82
2023/07/28 10:02:44;;;;;;;3.28;2.97;;;;;;;-141.97;26.41;47536.38;5050503;28;20185;-81
2023/07/28 10:05:10;;;;;;;3.53;2.60;;;;;;;-141.97;25.83;47330.72;5050320;28;20531;-82
2023/07/28 10:07:38;;;;;;;3.92;2.65;;;;;;;-141.97;25.46;47290.38;5049896;28;20180;-83
2023/07/28 10:10:09;;;;;;;3.22;2.92;;;;;;;-141.97;25.95;47551.75;5049665;28;20609;-80
2023/07/28 10:12:42;;;;;;;5.00;2.78;;;;;;;-141.97;26.17;47292.28;5050180;28;20627;-81
2023/07/28 10:15:12;;;;;;;3.10;2.80;;;;;;;-141.97;25.97;47250.00;5050071;28;20161;-81
2023/07/28 10:17:38;;;;;;;5.40;3.38;;;;;;;-141.97;25.86;47299.97;5040205;28;20672;-82
2023/07/28 10:20:26;;;;;;;3.40;3.10;;;;;;;-141.97;25.53;47246.16;5049487;28;20265;-81
2023/07/28 10:22:52;;;;;;;5.22;2.83;;;;;;;-141.97;25.16;47284.59;5049485;28;20195;-83
2023/07/28 10:25:26;;;;;;;3.63;2.83;;;;;;;-141.97;25.95;47465.25;5049904;28;20193;-81
2023/07/28 10:27:51;;;;;;;3.17;2.78;;;;;;;-141.97;25.51;47276.91;5049319;28;20204;-82
2023/07/28 10:30:17;;;;;;;4.55;3.38;;;;;;;-141.97;25.51;47313.44;5049608;28;20349;-83
2023/07/28 10:32:50;;;;;;;3.20;2.80;;;;;;;-141.97;25.28;47250.00;5050199;28;20924;-80
2023/07/28 10:35:19;;;;;;;3.20;2.72;;;;;;;-141.97;25.43;47311.50;5049650;28;20169;-81
2023/07/28 10:37:48;;;;;;;4.70;2.70;;;;;;;-141.97;25.38;47244.25;5049186;28;20671;-80
2023/07/28 10:40:35;;;;;;;4.97;2.90;;;;;;;-141.97;25.70;47290.38;5049827;28;20199;-81
2023/07/28 10:43:04;;;;;;;3.22;2.63;;;;;;;-141.97;25.46;47299.97;5049770;28;20158;-81
2023/07/28 10:45:33;;;;;;;3.65;2.72;;;;;;;-141.97;25.42;47251.94;5049567;28;20191;-81
2023/07/28 10:48:03;;;;;;;5.45;3.05;;;;;;;-141.97;25.24;47265.38;5049829;28;20248;-81
2023/07/28 10:50:30;;;;;;;3.20;2.72;;;;;;;-141.97;25.26;47296.13;5049786;28;20639;-80
2023/07/28 10:52:56;;;;;;;5.13;3.05;;;;;;;-141.97;25.19;47303.81;5049566;28;20171;-80
2023/07/28 10:55:24;;;;;;;3.05;2.75;;;;;;;-141.97;25.25;47296.13;5049762;28;20222;-81
2023/07/28 10:57:51;;;;;;;4.25;3.00;;;;;;;-141.97;25.37;47307.66;5049396;28;20179;-81
2023/07/28 11:00:18;;;;;;;3.00;2.70;;;;;;;-141.97;25.32;47273.06;5049112;28;20177;-81
2023/07/28 11:02:50;;;;;;;3.17;2.50;;;;;;;-141.97;25.32;47294.22;5049960;28;20175;-81
2023/07/28 11:05:27;;;;;;;3.00;2.70;;;;;;;-141.97;24.87;47538.28;5049234;28;20684;-81
2023/07/28 11:08:00;;;;;;;3.58;2.80;;;;;;;-141.97;25.66;47288.44;5049093;28;20507;-80
2023/07/28 11:10:29;;;;;;;3.83;2.50;;;;;;;-141.97;25.59;47582.50;5047753;28;20177;-81
2023/07/28 11:12:58;;;;;;;3.17;2.83;;;;;;;-141.97;25.63;47278.84;5049028;28;20171;-80